sensor_id;sensor_type;location;lat;lon;timestamp;pressure;altitude;pressure_sealevel;temperature;humidity
39487;BME280;25173;50.430;18.926;2023-02-02T00:01:58;97365.28;;;3.30;78.08
39487;BME280;25173;50.430;18.926;2023-02-02T00:04:59;97362.19;;;3.22;78.28
39487;BME280;25173;50.430;18.926;2023-02-02T00:08:00;97358.69;;;3.21;78.55
39487;BME280;25173;50.430;18.926;2023-02-02T00:11:01;97365.22;;;3.25;78.55
39487;BME280;25173;50.430;18.926;2023-02-02T00:14:01;97365.28;;;3.30;78.54
39487;BME280;25173;50.430;18.926;2023-02-02T00:17:02;97372.59;;;3.35;78.45
39487;BME280;25173;50.430;18.926;2023-02-02T00:20:04;97371.25;;;3.32;78.70
39487;BME280;25173;50.430;18.926;2023-02-02T00:23:05;97372.38;;;3.36;78.84
39487;BME280;25173;50.430;18.926;2023-02-02T00:26:06;97371.88;;;3.39;79.00
39487;BME280;25173;50.430;18.926;2023-02-02T00:29:09;97379.53;;;3.47;78.90
39487;BME280;25173;50.430;18.926;2023-02-02T00:32:13;97378.72;;;3.47;79.04
39487;BME280;25173;50.430;18.926;2023-02-02T00:35:14;97381.94;;;3.49;78.99
39487;BME280;25173;50.430;18.926;2023-02-02T00:38:15;97395.69;;;3.47;79.30
39487;BME280;25173;50.430;18.926;2023-02-02T00:41:16;97383.53;;;3.45;79.42
39487;BME280;25173;50.430;18.926;2023-02-02T00:44:16;97368.84;;;3.53;79.36
39487;BME280;25173;50.430;18.926;2023-02-02T00:47:35;97369.31;;;3.49;79.26
39487;BME280;25173;50.430;18.926;2023-02-02T00:50:36;97366.38;;;3.51;79.30
39487;BME280;25173;50.430;18.926;2023-02-02T00:53:37;97382.59;;;3.56;79.53
39487;BME280;25173;50.430;18.926;2023-02-02T00:56:37;97386.69;;;3.59;79.48
39487;BME280;25173;50.430;18.926;2023-02-02T00:59:38;97380.81;;;3.62;79.34
39487;BME280;25173;50.430;18.926;2023-02-02T01:02:39;97385.91;;;3.63;79.29
39487;BME280;25173;50.430;18.926;2023-02-02T01:05:40;97385.19;;;3.68;79.47
39487;BME280;25173;50.430;18.926;2023-02-02T01:08:41;97383.06;;;3.70;78.93
39487;BME280;25173;50.430;18.926;2023-02-02T01:11:41;97385.25;;;3.73;79.18
39487;BME280;25173;50.430;18.926;2023-02-02T01:14:42;97382.38;;;3.79;79.18
39487;BME280;25173;50.430;18.926;2023-02-02T01:17:42;97389.38;;;3.80;79.13
39487;BME280;25173;50.430;18.926;2023-02-02T01:20:43;97387.03;;;3.84;79.08
39487;BME280;25173;50.430;18.926;2023-02-02T01:23:44;97401.03;;;3.86;78.94
39487;BME280;25173;50.430;18.926;2023-02-02T01:26:44;97390.78;;;3.83;78.94
39487;BME280;25173;50.430;18.926;2023-02-02T01:29:45;97392.31;;;3.79;79.10
39487;BME280;25173;50.430;18.926;2023-02-02T01:32:46;97404.47;;;3.81;79.07
39487;BME280;25173;50.430;18.926;2023-02-02T01:35:51;97389.19;;;3.87;79.30
39487;BME280;25173;50.430;18.926;2023-02-02T01:38:52;97389.78;;;3.89;79.74
39487;BME280;25173;50.430;18.926;2023-02-02T01:41:52;97406.16;;;3.87;79.32
39487;BME280;25173;50.430;18.926;2023-02-02T01:45:27;97398.47;;;3.96;79.41
39487;BME280;25173;50.430;18.926;2023-02-02T01:48:31;97393.13;;;4.01;79.27
39487;BME280;25173;50.430;18.926;2023-02-02T01:54:54;97391.03;;;4.03;79.09
39487;BME280;25173;50.430;18.926;2023-02-02T01:57:57;97402.38;;;4.05;79.37
39487;BME280;25173;50.430;18.926;2023-02-02T02:00:59;97399.88;;;3.99;79.13
39487;BME280;25173;50.430;18.926;2023-02-02T02:04:00;97407.19;;;4.03;79.27
39487;BME280;25173;50.430;18.926;2023-02-02T02:07:02;97405.63;;;4.07;78.89
39487;BME280;25173;50.430;18.926;2023-02-02T02:10:05;97409.38;;;4.06;78.98
39487;BME280;25173;50.430;18.926;2023-02-02T02:13:06;97422.34;;;4.09;78.76
39487;BME280;25173;50.430;18.926;2023-02-02T02:16:17;97417.09;;;4.19;78.80
39487;BME280;25173;50.430;18.926;2023-02-02T02:34:53;97431.75;;;4.28;77.88
39487;BME280;25173;50.430;18.926;2023-02-02T02:41:20;97458.31;;;4.42;77.42
39487;BME280;25173;50.430;18.926;2023-02-02T02:44:21;97437.25;;;4.39;77.44
39487;BME280;25173;50.430;18.926;2023-02-02T02:47:22;97439.88;;;4.34;77.39
39487;BME280;25173;50.430;18.926;2023-02-02T02:50:24;97435.38;;;4.39;77.62
39487;BME280;25173;50.430;18.926;2023-02-02T02:53:25;97441.63;;;4.45;77.48
39487;BME280;25173;50.430;18.926;2023-02-02T02:56:32;97444.06;;;4.46;77.46
39487;BME280;25173;50.430;18.926;2023-02-02T03:03:30;97455.09;;;4.45;77.37
39487;BME280;25173;50.430;18.926;2023-02-02T03:06:54;97450.59;;;4.50;77.32
39487;BME280;25173;50.430;18.926;2023-02-02T03:09:57;97445.25;;;4.55;77.37
39487;BME280;25173;50.430;18.926;2023-02-02T03:13:05;97452.91;;;4.63;77.31
39487;BME280;25173;50.430;18.926;2023-02-02T03:16:07;97450.25;;;4.68;77.14
39487;BME280;25173;50.430;18.926;2023-02-02T03:19:08;97453.00;;;4.74;76.65
39487;BME280;25173;50.430;18.926;2023-02-02T03:22:09;97452.69;;;4.70;76.59
39487;BME280;25173;50.430;18.926;2023-02-02T03:25:09;97459.50;;;4.78;76.85
39487;BME280;25173;50.430;18.926;2023-02-02T03:28:13;97454.97;;;4.83;76.56
39487;BME280;25173;50.430;18.926;2023-02-02T03:31:15;97460.91;;;4.80;76.06
39487;BME280;25173;50.430;18.926;2023-02-02T03:34:15;97466.34;;;4.85;76.51
39487;BME280;25173;50.430;18.926;2023-02-02T03:37:16;97463.59;;;4.80;75.86
39487;BME280;25173;50.430;18.926;2023-02-02T03:40:17;97461.97;;;4.79;76.04
39487;BME280;25173;50.430;18.926;2023-02-02T03:43:22;97472.75;;;4.79;75.83
39487;BME280;25173;50.430;18.926;2023-02-02T03:46:23;97460.28;;;4.73;75.95
39487;BME280;25173;50.430;18.926;2023-02-02T03:49:23;97457.28;;;4.69;76.35
39487;BME280;25173;50.430;18.926;2023-02-02T03:52:24;97453.75;;;4.69;76.17
39487;BME280;25173;50.430;18.926;2023-02-02T03:55:25;97441.09;;;4.69;76.43
39487;BME280;25173;50.430;18.926;2023-02-02T03:58:26;97450.34;;;4.79;76.33
39487;BME280;25173;50.430;18.926;2023-02-02T04:01:27;97446.88;;;4.83;76.23
39487;BME280;25173;50.430;18.926;2023-02-02T04:04:28;97438.66;;;4.95;76.14
39487;BME280;25173;50.430;18.926;2023-02-02T04:07:29;97434.06;;;4.95;75.78
39487;BME280;25173;50.430;18.926;2023-02-02T04:10:29;97444.34;;;4.98;75.75
39487;BME280;25173;50.430;18.926;2023-02-02T04:13:30;97433.53;;;4.98;75.75
39487;BME280;25173;50.430;18.926;2023-02-02T04:16:31;97436.31;;;5.03;75.69
39487;BME280;25173;50.430;18.926;2023-02-02T04:19:34;97442.59;;;5.14;75.82
39487;BME280;25173;50.430;18.926;2023-02-02T04:22:34;97428.06;;;5.20;75.69
39487;BME280;25173;50.430;18.926;2023-02-02T04:25:35;97432.13;;;5.23;75.31
39487;BME280;25173;50.430;18.926;2023-02-02T04:28:36;97425.69;;;5.24;75.33
39487;BME280;25173;50.430;18.926;2023-02-02T04:31:36;97428.63;;;5.22;75.03
39487;BME280;25173;50.430;18.926;2023-02-02T04:34:37;97425.09;;;5.22;75.25
39487;BME280;25173;50.430;18.926;2023-02-02T04:37:38;97421.09;;;5.24;75.07
39487;BME280;25173;50.430;18.926;2023-02-02T04:40:43;97423.22;;;5.22;74.90
39487;BME280;25173;50.430;18.926;2023-02-02T04:43:52;97419.69;;;5.17;74.91
39487;BME280;25173;50.430;18.926;2023-02-02T04:46:53;97418.56;;;5.13;74.93
39487;BME280;25173;50.430;18.926;2023-02-02T04:49:54;97421.81;;;5.15;75.04
39487;BME280;25173;50.430;18.926;2023-02-02T04:52:54;97423.19;;;5.17;75.10
39487;BME280;25173;50.430;18.926;2023-02-02T04:55:55;97421.84;;;5.20;74.82
39487;BME280;25173;50.430;18.926;2023-02-02T04:58:56;97411.03;;;5.15;74.41
39487;BME280;25173;50.430;18.926;2023-02-02T05:02:00;97424.75;;;5.13;74.45
39487;BME280;25173;50.430;18.926;2023-02-02T05:05:01;97403.16;;;5.08;74.36
39487;BME280;25173;50.430;18.926;2023-02-02T05:08:02;97415.59;;;5.14;74.53
39487;BME280;25173;50.430;18.926;2023-02-02T05:11:07;97417.47;;;5.14;74.11
39487;BME280;25173;50.430;18.926;2023-02-02T05:14:08;97418.78;;;5.06;73.71
39487;BME280;25173;50.430;18.926;2023-02-02T05:17:09;97416.63;;;5.08;74.04
39487;BME280;25173;50.430;18.926;2023-02-02T05:20:10;97418.31;;;5.14;73.89
39487;BME280;25173;50.430;18.926;2023-02-02T05:23:11;97417.78;;;5.17;73.70
39487;BME280;25173;50.430;18.926;2023-02-02T05:26:18;97415.69;;;5.24;73.91
39487;BME280;25173;50.430;18.926;2023-02-02T05:29:20;97412.22;;;5.29;73.83
39487;BME280;25173;50.430;18.926;2023-02-02T05:32:20;97410.63;;;5.33;73.60
39487;BME280;25173;50.430;18.926;2023-02-02T05:35:21;97419.25;;;5.35;73.63
39487;BME280;25173;50.430;18.926;2023-02-02T05:38:22;97418.19;;;5.36;73.53
39487;BME280;25173;50.430;18.926;2023-02-02T05:41:22;97412.78;;;5.31;73.25
39487;BME280;25173;50.430;18.926;2023-02-02T05:44:23;97416.03;;;5.33;73.42
39487;BME280;25173;50.430;18.926;2023-02-02T05:47:24;97411.44;;;5.33;73.16
39487;BME280;25173;50.430;18.926;2023-02-02T05:50:24;97406.34;;;5.42;73.48
39487;BME280;25173;50.430;18.926;2023-02-02T05:53:35;97404.22;;;5.44;72.89
39487;BME280;25173;50.430;18.926;2023-02-02T05:56:36;97400.44;;;5.40;72.53
39487;BME280;25173;50.430;18.926;2023-02-02T05:59:37;97395.84;;;5.40;72.62
39487;BME280;25173;50.430;18.926;2023-02-02T06:02:37;97405.53;;;5.41;72.49
39487;BME280;25173;50.430;18.926;2023-02-02T06:05:38;97394.44;;;5.33;71.54
39487;BME280;25173;50.430;18.926;2023-02-02T06:08:39;97397.66;;;5.30;72.04
39487;BME280;25173;50.430;18.926;2023-02-02T06:11:39;97411.09;;;5.25;72.17
39487;BME280;25173;50.430;18.926;2023-02-02T06:14:42;97395.94;;;5.19;72.16
39487;BME280;25173;50.430;18.926;2023-02-02T06:17:42;97407.81;;;5.18;72.30
39487;BME280;25173;50.430;18.926;2023-02-02T06:20:43;97397.75;;;5.08;71.87
39487;BME280;25173;50.430;18.926;2023-02-02T06:23:45;97409.78;;;4.95;72.04
39487;BME280;25173;50.430;18.926;2023-02-02T06:26:46;97429.69;;;4.89;72.16
39487;BME280;25173;50.430;18.926;2023-02-02T06:29:46;97430.66;;;4.78;72.71
39487;BME280;25173;50.430;18.926;2023-02-02T06:32:47;97420.53;;;4.63;73.50
39487;BME280;25173;50.430;18.926;2023-02-02T06:35:47;97416.38;;;4.51;74.19
39487;BME280;25173;50.430;18.926;2023-02-02T06:38:53;97422.25;;;4.48;74.49
39487;BME280;25173;50.430;18.926;2023-02-02T06:41:54;97417.44;;;4.50;74.74
39487;BME280;25173;50.430;18.926;2023-02-02T06:44:54;97400.19;;;4.51;74.98
39487;BME280;25173;50.430;18.926;2023-02-02T06:47:59;97405.59;;;4.51;74.96
39487;BME280;25173;50.430;18.926;2023-02-02T06:51:02;97410.44;;;4.54;75.25
39487;BME280;25173;50.430;18.926;2023-02-02T06:54:04;97398.66;;;4.60;75.25
39487;BME280;25173;50.430;18.926;2023-02-02T06:57:05;97408.31;;;4.56;75.01
39487;BME280;25173;50.430;18.926;2023-02-02T07:00:07;97427.69;;;4.53;75.13
39487;BME280;25173;50.430;18.926;2023-02-02T07:03:08;97403.94;;;4.50;75.25
39487;BME280;25173;50.430;18.926;2023-02-02T07:06:28;97404.44;;;4.47;75.29
39487;BME280;25173;50.430;18.926;2023-02-02T07:09:31;97409.84;;;4.47;75.35
39487;BME280;25173;50.430;18.926;2023-02-02T07:12:32;97399.56;;;4.44;75.30
39487;BME280;25173;50.430;18.926;2023-02-02T07:15:33;97394.19;;;4.44;75.62
39487;BME280;25173;50.430;18.926;2023-02-02T07:18:34;97402.00;;;4.45;75.67
39487;BME280;25173;50.430;18.926;2023-02-02T07:21:38;97401.00;;;4.51;75.53
39487;BME280;25173;50.430;18.926;2023-02-02T07:24:39;97392.63;;;4.53;75.24
39487;BME280;25173;50.430;18.926;2023-02-02T07:27:39;97393.16;;;4.50;75.49
39487;BME280;25173;50.430;18.926;2023-02-02T07:30:40;97404.75;;;4.50;75.58
39487;BME280;25173;50.430;18.926;2023-02-02T07:33:42;97399.63;;;4.49;75.74
39487;BME280;25173;50.430;18.926;2023-02-02T07:36:43;97407.38;;;4.45;75.89
39487;BME280;25173;50.430;18.926;2023-02-02T07:39:43;97411.19;;;4.44;76.02
39487;BME280;25173;50.430;18.926;2023-02-02T07:42:47;97409.25;;;4.45;76.10
39487;BME280;25173;50.430;18.926;2023-02-02T07:45:48;97415.22;;;4.47;75.95
39487;BME280;25173;50.430;18.926;2023-02-02T07:48:52;97407.91;;;4.42;75.95
39487;BME280;25173;50.430;18.926;2023-02-02T07:51:54;97401.13;;;4.40;76.47
39487;BME280;25173;50.430;18.926;2023-02-02T07:54:55;97412.50;;;4.42;76.49
39487;BME280;25173;50.430;18.926;2023-02-02T07:57:56;97410.84;;;4.41;76.58
39487;BME280;25173;50.430;18.926;2023-02-02T08:01:06;97417.94;;;4.47;76.40
39487;BME280;25173;50.430;18.926;2023-02-02T08:04:07;97427.59;;;4.43;76.60
39487;BME280;25173;50.430;18.926;2023-02-02T08:07:08;97422.09;;;4.33;76.50
39487;BME280;25173;50.430;18.926;2023-02-02T08:10:09;97440.03;;;4.22;76.82
39487;BME280;25173;50.430;18.926;2023-02-02T08:13:10;97440.81;;;4.22;77.21
39487;BME280;25173;50.430;18.926;2023-02-02T08:16:11;97428.34;;;4.16;77.15
39487;BME280;25173;50.430;18.926;2023-02-02T08:19:12;97440.09;;;4.05;77.24
39487;BME280;25173;50.430;18.926;2023-02-02T08:22:12;97447.28;;;4.00;77.83
39487;BME280;25173;50.430;18.926;2023-02-02T08:25:13;97439.94;;;3.95;77.88
39487;BME280;25173;50.430;18.926;2023-02-02T08:28:14;97436.13;;;3.91;78.16
39487;BME280;25173;50.430;18.926;2023-02-02T08:31:34;97448.69;;;3.85;78.39
39487;BME280;25173;50.430;18.926;2023-02-02T08:34:35;97441.06;;;3.77;78.69
39487;BME280;25173;50.430;18.926;2023-02-02T08:37:36;97438.63;;;3.76;79.01
39487;BME280;25173;50.430;18.926;2023-02-02T08:40:37;97438.69;;;3.81;79.35
39487;BME280;25173;50.430;18.926;2023-02-02T08:43:38;97442.75;;;3.83;79.56
39487;BME280;25173;50.430;18.926;2023-02-02T08:46:39;97452.84;;;3.93;79.60
39487;BME280;25173;50.430;18.926;2023-02-02T08:49:40;97449.09;;;3.94;79.29
39487;BME280;25173;50.430;18.926;2023-02-02T08:52:41;97439.38;;;3.93;79.28
39487;BME280;25173;50.430;18.926;2023-02-02T08:55:42;97457.97;;;3.95;79.31
39487;BME280;25173;50.430;18.926;2023-02-02T08:58:50;97456.63;;;3.92;79.29
39487;BME280;25173;50.430;18.926;2023-02-02T09:01:51;97448.78;;;3.90;79.60
39487;BME280;25173;50.430;18.926;2023-02-02T09:04:52;97474.91;;;3.90;79.62
39487;BME280;25173;50.430;18.926;2023-02-02T09:07:53;97457.84;;;3.84;79.51
39487;BME280;25173;50.430;18.926;2023-02-02T09:10:53;97460.03;;;3.87;80.11
39487;BME280;25173;50.430;18.926;2023-02-02T09:13:56;97478.66;;;3.89;79.93
39487;BME280;25173;50.430;18.926;2023-02-02T09:16:57;97467.06;;;3.88;80.18
39487;BME280;25173;50.430;18.926;2023-02-02T09:19:58;97479.47;;;3.89;80.40
39487;BME280;25173;50.430;18.926;2023-02-02T09:22:58;97485.97;;;3.94;80.55
39487;BME280;25173;50.430;18.926;2023-02-02T09:29:21;97491.94;;;3.96;80.37
39487;BME280;25173;50.430;18.926;2023-02-02T09:32:22;97500.47;;;4.09;80.95
39487;BME280;25173;50.430;18.926;2023-02-02T09:35:23;97506.00;;;4.19;80.87
39487;BME280;25173;50.430;18.926;2023-02-02T09:38:23;97503.31;;;4.19;80.77
39487;BME280;25173;50.430;18.926;2023-02-02T09:44:55;97524.63;;;4.21;80.83
39487;BME280;25173;50.430;18.926;2023-02-02T09:51:24;97536.59;;;4.30;81.05
39487;BME280;25173;50.430;18.926;2023-02-02T09:54:36;97527.53;;;4.36;80.84
39487;BME280;25173;50.430;18.926;2023-02-02T09:57:53;97530.09;;;4.48;80.83
39487;BME280;25173;50.430;18.926;2023-02-02T10:01:05;97547.41;;;4.52;80.30
39487;BME280;25173;50.430;18.926;2023-02-02T10:04:37;97551.22;;;4.56;79.95
39487;BME280;25173;50.430;18.926;2023-02-02T10:07:41;97558.75;;;4.54;79.63
39487;BME280;25173;50.430;18.926;2023-02-02T10:10:45;97565.53;;;4.56;79.80
39487;BME280;25173;50.430;18.926;2023-02-02T10:13:47;97550.22;;;4.62;79.48
39487;BME280;25173;50.430;18.926;2023-02-02T10:16:52;97548.66;;;4.66;79.23
39487;BME280;25173;50.430;18.926;2023-02-02T10:19:56;97569.00;;;4.74;79.09
39487;BME280;25173;50.430;18.926;2023-02-02T10:23:10;97576.06;;;4.80;78.62
39487;BME280;25173;50.430;18.926;2023-02-02T10:26:20;97552.97;;;4.89;79.20
39487;BME280;25173;50.430;18.926;2023-02-02T10:32:27;97570.75;;;5.12;78.06
39487;BME280;25173;50.430;18.926;2023-02-02T10:35:41;97574.94;;;5.24;76.83
39487;BME280;25173;50.430;18.926;2023-02-02T10:39:14;97570.72;;;5.33;76.43
39487;BME280;25173;50.430;18.926;2023-02-02T10:45:30;97576.47;;;5.42;73.67
39487;BME280;25173;50.430;18.926;2023-02-02T10:48:33;97610.25;;;5.44;72.97
39487;BME280;25173;50.430;18.926;2023-02-02T10:51:38;97578.06;;;5.38;72.88
39487;BME280;25173;50.430;18.926;2023-02-02T11:01:02;97587.94;;;5.54;73.09
39487;BME280;25173;50.430;18.926;2023-02-02T11:04:08;97582.00;;;5.57;73.29
39487;BME280;25173;50.430;18.926;2023-02-02T11:07:28;97610.16;;;5.61;72.01
39487;BME280;25173;50.430;18.926;2023-02-02T11:10:31;97616.88;;;5.59;73.00
39487;BME280;25173;50.430;18.926;2023-02-02T11:13:38;97607.94;;;5.58;72.75
39487;BME280;25173;50.430;18.926;2023-02-02T11:16:42;97604.75;;;5.61;72.58
39487;BME280;25173;50.430;18.926;2023-02-02T11:19:43;97601.38;;;5.49;71.43
39487;BME280;25173;50.430;18.926;2023-02-02T11:22:44;97617.56;;;5.49;72.21
39487;BME280;25173;50.430;18.926;2023-02-02T11:25:45;97605.16;;;5.48;71.39
39487;BME280;25173;50.430;18.926;2023-02-02T11:28:47;97621.91;;;5.50;71.57
39487;BME280;25173;50.430;18.926;2023-02-02T11:31:48;97623.03;;;5.54;71.90
39487;BME280;25173;50.430;18.926;2023-02-02T11:35:13;97645.72;;;5.53;69.23
39487;BME280;25173;50.430;18.926;2023-02-02T11:38:14;97622.97;;;5.49;70.73
39487;BME280;25173;50.430;18.926;2023-02-02T11:41:18;97634.38;;;5.56;70.75
39487;BME280;25173;50.430;18.926;2023-02-02T11:44:24;97634.22;;;5.63;70.68
39487;BME280;25173;50.430;18.926;2023-02-02T11:47:28;97645.81;;;5.63;70.29
39487;BME280;25173;50.430;18.926;2023-02-02T11:50:30;97648.25;;;5.65;70.10
39487;BME280;25173;50.430;18.926;2023-02-02T11:53:39;97650.22;;;5.69;70.02
39487;BME280;25173;50.430;18.926;2023-02-02T11:56:47;97658.03;;;5.71;69.16
39487;BME280;25173;50.430;18.926;2023-02-02T12:00:04;97653.72;;;5.70;68.93
39487;BME280;25173;50.430;18.926;2023-02-02T12:03:25;97656.50;;;5.80;68.31
39487;BME280;25173;50.430;18.926;2023-02-02T12:06:34;97657.06;;;5.82;67.92
39487;BME280;25173;50.430;18.926;2023-02-02T12:09:36;97678.72;;;5.87;68.16
39487;BME280;25173;50.430;18.926;2023-02-02T12:22:47;97691.38;;;5.81;67.70
39487;BME280;25173;50.430;18.926;2023-02-02T12:26:18;97698.25;;;5.89;67.14
39487;BME280;25173;50.430;18.926;2023-02-02T12:43:15;97700.03;;;6.05;66.05
39487;BME280;25173;50.430;18.926;2023-02-02T12:53:28;97720.81;;;6.00;65.39
39487;BME280;25173;50.430;18.926;2023-02-02T12:56:44;97723.75;;;5.98;65.95
39487;BME280;25173;50.430;18.926;2023-02-02T13:03:42;97723.59;;;6.10;65.42
39487;BME280;25173;50.430;18.926;2023-02-02T13:13:20;97749.91;;;6.19;63.52
39487;BME280;25173;50.430;18.926;2023-02-02T13:16:23;97737.09;;;6.10;63.79
39487;BME280;25173;50.430;18.926;2023-02-02T13:19:31;97750.03;;;6.08;64.03
39487;BME280;25173;50.430;18.926;2023-02-02T13:22:38;97754.91;;;6.06;64.38
39487;BME280;25173;50.430;18.926;2023-02-02T13:25:45;97759.75;;;6.04;63.75
39487;BME280;25173;50.430;18.926;2023-02-02T13:28:59;97764.34;;;6.03;63.90
39487;BME280;25173;50.430;18.926;2023-02-02T13:32:27;97776.28;;;6.07;62.77
39487;BME280;25173;50.430;18.926;2023-02-02T13:35:41;97773.91;;;6.16;63.16
39487;BME280;25173;50.430;18.926;2023-02-02T13:38:44;97763.09;;;6.16;62.28
39487;BME280;25173;50.430;18.926;2023-02-02T13:41:46;97770.56;;;6.04;61.32
39487;BME280;25173;50.430;18.926;2023-02-02T13:45:02;97776.47;;;6.01;61.61
39487;BME280;25173;50.430;18.926;2023-02-02T14:01:10;97806.38;;;6.16;61.34
39487;BME280;25173;50.430;18.926;2023-02-02T14:04:24;97808.56;;;6.19;60.95
39487;BME280;25173;50.430;18.926;2023-02-02T14:07:42;97814.47;;;6.16;61.57
39487;BME280;25173;50.430;18.926;2023-02-02T14:10:56;97825.63;;;5.98;60.66
39487;BME280;25173;50.430;18.926;2023-02-02T14:14:09;97821.78;;;5.94;61.65
39487;BME280;25173;50.430;18.926;2023-02-02T14:20:43;97833.16;;;5.96;61.86
39487;BME280;25173;50.430;18.926;2023-02-02T14:23:49;97834.25;;;5.95;61.71
39487;BME280;25173;50.430;18.926;2023-02-02T14:26:52;97853.94;;;5.90;61.60
39487;BME280;25173;50.430;18.926;2023-02-02T14:33:17;97867.44;;;5.90;61.98
39487;BME280;25173;50.430;18.926;2023-02-02T14:36:23;97884.47;;;5.91;62.29
39487;BME280;25173;50.430;18.926;2023-02-02T14:39:27;97880.84;;;5.85;62.36
39487;BME280;25173;50.430;18.926;2023-02-02T14:46:22;97889.63;;;5.75;61.35
39487;BME280;25173;50.430;18.926;2023-02-02T14:49:25;97899.63;;;5.75;62.54
39487;BME280;25173;50.430;18.926;2023-02-02T14:52:28;97911.69;;;5.67;62.50
39487;BME280;25173;50.430;18.926;2023-02-02T14:55:29;97911.84;;;5.61;62.61
39487;BME280;25173;50.430;18.926;2023-02-02T14:58:43;97925.13;;;5.62;62.70
39487;BME280;25173;50.430;18.926;2023-02-02T15:01:54;97920.78;;;5.61;62.26
39487;BME280;25173;50.430;18.926;2023-02-02T15:08:28;97931.94;;;5.48;62.05
39487;BME280;25173;50.430;18.926;2023-02-02T15:18:12;97951.97;;;5.52;62.19
39487;BME280;25173;50.430;18.926;2023-02-02T15:21:18;97958.09;;;5.64;62.36
39487;BME280;25173;50.430;18.926;2023-02-02T15:24:24;97959.72;;;5.65;62.21
39487;BME280;25173;50.430;18.926;2023-02-02T15:27:26;97958.25;;;5.58;60.95
39487;BME280;25173;50.430;18.926;2023-02-02T15:30:30;97964.59;;;5.46;60.35
39487;BME280;25173;50.430;18.926;2023-02-02T15:33:38;97968.41;;;5.34;60.61
39487;BME280;25173;50.430;18.926;2023-02-02T15:36:43;97984.28;;;5.30;61.20
39487;BME280;25173;50.430;18.926;2023-02-02T15:39:47;97980.31;;;5.33;61.46
39487;BME280;25173;50.430;18.926;2023-02-02T15:43:02;98001.97;;;5.38;61.18
39487;BME280;25173;50.430;18.926;2023-02-02T15:46:10;98013.91;;;5.42;61.87
39487;BME280;25173;50.430;18.926;2023-02-02T15:52:26;98011.72;;;5.39;61.22
39487;BME280;25173;50.430;18.926;2023-02-02T15:55:33;98037.16;;;5.43;60.40
39487;BME280;25173;50.430;18.926;2023-02-02T15:58:37;98031.75;;;5.43;60.97
39487;BME280;25173;50.430;18.926;2023-02-02T16:01:46;98039.47;;;5.51;60.97
39487;BME280;25173;50.430;18.926;2023-02-02T16:04:48;98059.44;;;5.50;61.00
39487;BME280;25173;50.430;18.926;2023-02-02T16:07:49;98064.28;;;5.48;61.25
39487;BME280;25173;50.430;18.926;2023-02-02T16:11:09;98077.28;;;5.51;60.25
39487;BME280;25173;50.430;18.926;2023-02-02T16:14:13;98083.06;;;5.43;60.14
39487;BME280;25173;50.430;18.926;2023-02-02T16:17:21;98100.41;;;5.30;59.80
39487;BME280;25173;50.430;18.926;2023-02-02T16:20:22;98103.00;;;5.25;60.34
39487;BME280;25173;50.430;18.926;2023-02-02T16:23:30;98102.66;;;5.22;59.84
39487;BME280;25173;50.430;18.926;2023-02-02T16:26:33;98107.75;;;5.18;60.30
39487;BME280;25173;50.430;18.926;2023-02-02T16:29:34;98141.41;;;5.16;59.25
39487;BME280;25173;50.430;18.926;2023-02-02T16:32:37;98130.03;;;5.14;59.81
39487;BME280;25173;50.430;18.926;2023-02-02T16:35:41;98131.91;;;5.13;58.48
39487;BME280;25173;50.430;18.926;2023-02-02T16:38:42;98133.09;;;5.05;58.95
39487;BME280;25173;50.430;18.926;2023-02-02T16:41:43;98133.84;;;5.01;59.10
39487;BME280;25173;50.430;18.926;2023-02-02T16:44:46;98146.66;;;4.94;58.13
39487;BME280;25173;50.430;18.926;2023-02-02T16:47:48;98174.22;;;4.96;58.38
39487;BME280;25173;50.430;18.926;2023-02-02T16:57:05;98185.38;;;4.76;58.11
39487;BME280;25173;50.430;18.926;2023-02-02T17:00:06;98194.75;;;4.85;58.87
39487;BME280;25173;50.430;18.926;2023-02-02T17:03:09;98193.22;;;4.89;58.78
39487;BME280;25173;50.430;18.926;2023-02-02T17:06:12;98203.91;;;4.84;58.25
39487;BME280;25173;50.430;18.926;2023-02-02T17:12:29;98223.50;;;4.68;58.42
39487;BME280;25173;50.430;18.926;2023-02-02T17:15:34;98227.97;;;4.62;58.55
39487;BME280;25173;50.430;18.926;2023-02-02T17:18:35;98236.63;;;4.53;57.84
39487;BME280;25173;50.430;18.926;2023-02-02T17:21:36;98225.13;;;4.46;58.72
39487;BME280;25173;50.430;18.926;2023-02-02T17:24:36;98226.19;;;4.45;58.95
39487;BME280;25173;50.430;18.926;2023-02-02T17:27:37;98215.88;;;4.42;59.21
39487;BME280;25173;50.430;18.926;2023-02-02T17:30:39;98233.00;;;4.36;59.11
39487;BME280;25173;50.430;18.926;2023-02-02T17:33:41;98252.31;;;4.33;59.38
39487;BME280;25173;50.430;18.926;2023-02-02T17:36:43;98245.88;;;4.34;59.78
39487;BME280;25173;50.430;18.926;2023-02-02T17:39:43;98260.88;;;4.29;59.68
39487;BME280;25173;50.430;18.926;2023-02-02T17:42:46;98266.28;;;4.29;60.11
39487;BME280;25173;50.430;18.926;2023-02-02T17:45:48;98267.78;;;4.25;59.82
39487;BME280;25173;50.430;18.926;2023-02-02T17:48:49;98265.66;;;4.27;59.87
39487;BME280;25173;50.430;18.926;2023-02-02T17:51:50;98276.91;;;4.24;59.56
39487;BME280;25173;50.430;18.926;2023-02-02T17:54:50;98275.41;;;4.28;59.67
39487;BME280;25173;50.430;18.926;2023-02-02T17:57:52;98280.69;;;4.35;59.82
39487;BME280;25173;50.430;18.926;2023-02-02T18:00:54;98292.53;;;4.46;59.76
39487;BME280;25173;50.430;18.926;2023-02-02T18:03:58;98293.97;;;4.48;59.25
39487;BME280;25173;50.430;18.926;2023-02-02T18:06:59;98295.03;;;4.59;59.33
39487;BME280;25173;50.430;18.926;2023-02-02T18:09:59;98305.84;;;4.59;58.58
39487;BME280;25173;50.430;18.926;2023-02-02T18:13:00;98321.31;;;4.52;58.29
39487;BME280;25173;50.430;18.926;2023-02-02T18:16:01;98316.47;;;4.54;58.71
39487;BME280;25173;50.430;18.926;2023-02-02T18:19:01;98322.59;;;4.61;58.69
39487;BME280;25173;50.430;18.926;2023-02-02T18:22:04;98319.78;;;4.56;58.36
39487;BME280;25173;50.430;18.926;2023-02-02T18:25:06;98331.00;;;4.53;58.16
39487;BME280;25173;50.430;18.926;2023-02-02T18:28:07;98328.69;;;4.56;58.54
39487;BME280;25173;50.430;18.926;2023-02-02T18:31:10;98340.31;;;4.57;58.13